M I D A S
Marine Information and Data Acquisition System
Tripno 2151 of the Zeeleeuw from 2011-07-26 06:31:55 to 2011-07-26 13:52:39
Back to CruiseResearch ActivitiesStationsMapUnderway DataData graphs

EquipmentUnitsComment
TimeDGPSUTC
LatitudeDGPSDM.mWGS84
LongitudeDGPSDM.mWGS84
HeadingGyrodeg 
SOGDGPSknotsSpeed over ground
COGDGPSdegCourse over ground
DepthEcho soundermeters200 kHz
Missing or incorrect values are displayed as -999
Navigation data collected by the RV Zeeleeuw from 2011-07-26 06:33:15 to 2011-07-26 13:58:13
Time Latitude Longitude Heading SOG COG Depth
2011-07-26 06:34:24 51°13.65 2°55.946 107.4 3 284 -999
2011-07-26 06:35:24 51°13.665 2°55.874 120.6 3 296 -999
2011-07-26 06:36:25 51°13.701 2°55.799 133.6 4 314 -999
2011-07-26 06:37:24 51°13.749 2°55.721 136.9 3.8 312 -999
2011-07-26 06:38:24 51°13.797 2°55.661 159.6 4.1 337 -999
2011-07-26 06:39:24 51°13.865 2°55.638 171.9 4 352 -999
2011-07-26 06:40:25 51°13.925 2°55.639 191.6 2.9 13 -999
2011-07-26 06:41:24 51°13.949 2°55.651 206.4 0.6 217 13.3
2011-07-26 06:42:23 51°13.935 2°55.625 258.1 0.5 130 13.3
2011-07-26 06:43:24 51°13.934 2°55.613 291.4 2.9 289 -999
2011-07-26 06:44:23 51°13.99 2°55.546 330.5 5.6 330 13.2
2011-07-26 06:45:21 51°14.088 2°55.46 330.8 8 331 -999
2011-07-26 06:46:20 51°14.211 2°55.351 332.5 8.9 331 13.2
2011-07-26 06:47:24 51°14.349 2°55.224 329.1 9.1 327 13.2
2011-07-26 06:48:23 51°14.48 2°55.08 326.5 10.2 325 13.5
2011-07-26 06:49:24 51°14.637 2°54.933 326 11.1 328 13.7
2011-07-26 06:50:23 51°14.789 2°54.774 322.4 11.1 324 13.3
2011-07-26 06:51:24 51°14.95 2°54.585 323.9 12.1 327 -999
2011-07-26 06:52:22 51°15.109 2°54.407 322.9 12.2 326 11.9
2011-07-26 06:53:21 51°15.268 2°54.215 316.5 12.2 318 11.6
2011-07-26 06:54:21 51°15.425 2°54.011 321.9 12.2 322 13.6
2011-07-26 06:55:21 51°15.57 2°53.788 315 12.2 316 13.8
2011-07-26 06:56:21 51°15.722 2°53.582 320.9 12.2 323 13.9
2011-07-26 06:57:21 51°15.878 2°53.378 320.8 12 323 14.8
2011-07-26 06:58:21 51°16.055 2°53.226 336.9 12.3 341 13.7
2011-07-26 06:59:21 51°16.245 2°53.119 336 12 339 14.4
2011-07-26 07:00:21 51°16.435 2°52.999 335.4 12.2 337 13.9
2011-07-26 07:01:21 51°16.617 2°52.861 335.8 12.1 338 13.9
2011-07-26 07:02:21 51°16.809 2°52.757 340.6 12.2 343 11.8
2011-07-26 07:03:21 51°17 2°52.656 339.2 11.9 342 12.6
2011-07-26 07:04:21 51°17.2 2°52.598 351.1 12.3 354 12
2011-07-26 07:05:21 51°17.403 2°52.56 350.9 12.2 353 12.6
2011-07-26 07:06:21 51°17.609 2°52.542 356.6 12.4 358 12.6
2011-07-26 07:07:21 51°17.817 2°52.546 1.4 12.5 3 12.3
2011-07-26 07:08:21 51°18.024 2°52.543 357.9 12.2 -999 13.3
2011-07-26 07:09:21 51°18.228 2°52.561 1.5 12.4 4 12.6
2011-07-26 07:10:21 51°18.434 2°52.573 359.4 12.4 1 13.3
2011-07-26 07:11:21 51°18.639 2°52.567 357.7 12.2 -999 13.4
2011-07-26 07:12:21 51°18.843 2°52.576 1.5 12.5 4 14.7
2011-07-26 07:13:21 51°19.051 2°52.586 359 12.4 -999 15.5
2011-07-26 07:14:21 51°19.257 2°52.579 358.9 12.2 -999 16.8
2011-07-26 07:15:21 51°19.46 2°52.59 0.7 12 1 17.2
2011-07-26 07:16:21 51°19.664 2°52.589 357 12.5 357 16.9
2011-07-26 07:17:21 51°19.869 2°52.584 0.8 12.2 1 18.1
2011-07-26 07:18:21 51°20.072 2°52.592 0.2 12.4 -999 18.1
2011-07-26 07:19:21 51°20.279 2°52.58 356.7 12.3 357 19
2011-07-26 07:20:21 51°20.486 2°52.574 0.5 12.2 2 18.7
2011-07-26 07:21:21 51°20.688 2°52.583 0.8 12.3 1 17.3
2011-07-26 07:22:21 51°20.893 2°52.575 357.2 12.3 358 16.8
2011-07-26 07:23:21 51°21.096 2°52.581 1.2 12.3 2 16.9
2011-07-26 07:24:21 51°21.3 2°52.578 356.5 12.3 357 18.1
2011-07-26 07:25:21 51°21.508 2°52.569 359 12.6 -999 19.9
2011-07-26 07:26:21 51°21.715 2°52.578 0.4 12.4 1 23.1
2011-07-26 07:27:21 51°21.922 2°52.574 357.4 12.4 358 25.2
2011-07-26 07:28:21 51°22.13 2°52.568 0.8 12.5 2 26.4
2011-07-26 07:29:21 51°22.336 2°52.574 359.3 12.2 359 25.2
2011-07-26 07:30:21 51°22.543 2°52.57 358.4 12.6 -999 24.6
2011-07-26 07:31:21 51°22.751 2°52.567 357.4 12.6 358 24.6
2011-07-26 07:32:21 51°22.961 2°52.575 0.8 12.5 2 23.9
2011-07-26 07:33:21 51°23.167 2°52.588 359.8 12.6 -999 24.4
2011-07-26 07:34:21 51°23.374 2°52.581 358.7 12.7 -999 22.6
2011-07-26 07:35:21 51°23.582 2°52.581 359.6 12.4 2 21.8
2011-07-26 07:36:21 51°23.787 2°52.593 0.8 12.4 1 19.6
2011-07-26 07:37:21 51°23.99 2°52.583 358.8 11.5 1 19.9
2011-07-26 07:38:21 51°24.191 2°52.601 3.9 12.3 4 21.3
2011-07-26 07:39:21 51°24.395 2°52.605 0.1 12.3 1 21
2011-07-26 07:40:21 51°24.599 2°52.614 3.1 12.2 3 20.9
2011-07-26 07:41:21 51°24.8 2°52.622 0.9 11.9 -999 23.6
2011-07-26 07:42:21 51°25.003 2°52.62 1.9 12.4 2 24.8
2011-07-26 07:43:21 51°25.21 2°52.629 359.4 12.4 359 24.5
2011-07-26 07:44:21 51°25.416 2°52.613 357.5 12.3 358 25.3
2011-07-26 07:45:21 51°25.622 2°52.61 0.7 12.6 -999 26.9
2011-07-26 07:46:21 51°25.828 2°52.611 359.4 12.3 359 29.4
2011-07-26 07:47:21 51°26.031 2°52.587 355.2 12.6 355 30.8
2011-07-26 07:48:21 51°26.238 2°52.567 358.2 12.4 357 29.4
2011-07-26 07:49:21 51°26.443 2°52.548 356 12.5 356 30.3
2011-07-26 07:50:21 51°26.647 2°52.527 358 12 -999 30.1
2011-07-26 07:51:21 51°26.851 2°52.533 2.6 12.3 3 28.6
2011-07-26 07:52:21 51°27.055 2°52.54 358.6 12.2 356 26.8
2011-07-26 07:53:21 51°27.257 2°52.515 357.1 12.1 356 20.4
2011-07-26 07:54:21 51°27.46 2°52.504 358.6 12.3 359 25.1
2011-07-26 07:55:21 51°27.666 2°52.493 359.4 12.4 359 21.5
2011-07-26 07:56:21 51°27.872 2°52.483 357.6 12.4 356 23
2011-07-26 07:57:21 51°28.074 2°52.461 356.4 12 356 24.2
2011-07-26 07:58:21 51°28.278 2°52.458 359.8 12.4 359 24.9
2011-07-26 07:59:21 51°28.48 2°52.451 358.6 11.9 358 28.3
2011-07-26 08:00:21 51°28.683 2°52.441 357.2 12.4 358 29.5
2011-07-26 08:01:21 51°28.887 2°52.425 357.2 12.4 357 31.3
2011-07-26 08:02:21 51°29.094 2°52.423 0.3 12.6 1 32.1
2011-07-26 08:03:21 51°29.305 2°52.424 359.8 12.6 1 31.7
2011-07-26 08:04:20 51°29.509 2°52.425 0.5 12 2 31.7
2011-07-26 08:05:21 51°29.716 2°52.447 1.5 12.2 3 31.2
2011-07-26 08:06:21 51°29.919 2°52.451 358.5 12.2 358 30.5
2011-07-26 08:07:21 51°30.126 2°52.449 358.6 12.5 1 32.4
2011-07-26 08:08:21 51°30.33 2°52.466 2.3 12.5 4 30.9
2011-07-26 08:09:21 51°30.536 2°52.474 -999 11.9 -999 26.3
2011-07-26 08:10:21 51°30.735 2°52.478 0.8 12.2 1 18.4
2011-07-26 08:11:21 51°30.94 2°52.485 0.2 12 2 22.7
2011-07-26 08:12:21 51°31.122 2°52.496 0.7 8.2 4 21.9
2011-07-26 08:13:21 51°31.213 2°52.501 351.2 3.8 359 23.1
2011-07-26 08:14:21 51°31.245 2°52.497 317.9 0.7 47 22
2011-07-26 08:15:23 51°31.243 2°52.516 282.1 0.9 101 -999
2011-07-26 08:16:23 51°31.239 2°52.541 257 1 110 21.3
2011-07-26 08:17:21 51°31.237 2°52.555 252.9 0.3 115 21.6
2011-07-26 08:18:21 51°31.235 2°52.551 272.8 0.3 259 21.1
2011-07-26 08:19:21 51°31.234 2°52.549 279 0.1 138 20.2
2011-07-26 08:20:21 51°31.233 2°52.552 281 0.2 170 20.6
2011-07-26 08:21:21 51°31.233 2°52.551 286.4 0.1 254 20
2011-07-26 08:22:21 51°31.233 2°52.551 287.1 0.1 76 20.4
2011-07-26 08:23:21 51°31.233 2°52.553 284.7 0.2 66 19.8
2011-07-26 08:24:21 51°31.233 2°52.55 287.3 0.2 269 20.1
2011-07-26 08:25:21 51°31.232 2°52.551 283.2 0.2 179 20
2011-07-26 08:26:21 51°31.232 2°52.551 285.8 0.1 250 20.1
2011-07-26 08:27:21 51°31.232 2°52.549 285.4 0.1 180 20.5
2011-07-26 08:28:21 51°31.232 2°52.551 283.2 0.3 34 20
2011-07-26 08:29:21 51°31.231 2°52.55 281.7 0.1 -999 20.4
2011-07-26 08:30:21 51°31.231 2°52.548 285.2 0.1 2 19.9
2011-07-26 08:31:21 51°31.231 2°52.549 289.6 0.2 13 20.2
2011-07-26 08:32:21 51°31.231 2°52.552 289 0.3 46 20.2
2011-07-26 08:33:21 51°31.232 2°52.55 288.4 0.2 343 20
2011-07-26 08:34:21 51°31.231 2°52.549 285.2 0.2 140 19.9
2011-07-26 08:35:21 51°31.23 2°52.549 282.9 0.2 -999 20
2011-07-26 08:36:21 51°31.231 2°52.547 287.6 0.2 346 20.4
2011-07-26 08:37:21 51°31.231 2°52.549 286.4 0.1 88 20
2011-07-26 08:38:21 51°31.231 2°52.551 285.8 0.1 165 19.8
2011-07-26 08:39:21 51°31.232 2°52.55 289.3 -999 79 19.5
2011-07-26 08:40:21 51°31.232 2°52.552 289.7 0.1 246 20.7
2011-07-26 08:41:21 51°31.235 2°52.551 290.8 0.4 19 20.5
2011-07-26 08:42:21 51°31.236 2°52.553 289 0.2 122 21.3
2011-07-26 08:43:21 51°31.236 2°52.555 283.3 0.3 13 21.1
2011-07-26 08:44:21 51°31.235 2°52.555 276.9 0.2 10 20.9
2011-07-26 08:45:21 51°31.235 2°52.552 279.3 0.2 352 20.6
2011-07-26 08:46:21 51°31.236 2°52.554 282.9 0.3 40 21.2
2011-07-26 08:47:21 51°31.237 2°52.555 282.7 0.2 345 21.5
2011-07-26 08:48:21 51°31.237 2°52.554 281.7 -999 169 21.5
2011-07-26 08:49:21 51°31.236 2°52.555 278.3 0.1 83 21.6
2011-07-26 08:50:21 51°31.236 2°52.554 278.1 0.1 254 21.7
2011-07-26 08:51:21 51°31.236 2°52.553 278.3 0.2 144 21.5
2011-07-26 08:52:21 51°31.235 2°52.554 276.5 0.2 40 20.7
2011-07-26 08:53:21 51°31.235 2°52.553 281 0.1 198 20.9
2011-07-26 08:54:21 51°31.236 2°52.552 281.5 0.2 7 20.9
2011-07-26 08:55:21 51°31.236 2°52.553 282.5 0.1 188 21.2
2011-07-26 08:56:21 51°31.235 2°52.554 279.8 0.3 172 21.2
2011-07-26 08:57:21 51°31.235 2°52.553 282.4 0.4 214 21.7
2011-07-26 08:58:21 51°31.236 2°52.552 281.3 0.1 131 20.7
2011-07-26 08:59:21 51°31.235 2°52.555 280.1 0.3 7 20.9
2011-07-26 09:00:21 51°31.239 2°52.544 286.7 0.8 325 20.3
2011-07-26 09:01:21 51°31.245 2°52.532 289.9 0.4 287 21.8
2011-07-26 09:02:21 51°31.245 2°52.528 279.7 0.4 213 21.6
2011-07-26 09:03:21 51°31.245 2°52.529 278.1 0.4 137 21.9
2011-07-26 09:04:21 51°31.243 2°52.542 268 0.7 116 21
2011-07-26 09:05:21 51°31.239 2°52.551 254.3 0.6 242 21.6
2011-07-26 09:06:21 51°31.217 2°52.531 202.8 2.3 187 22.3
2011-07-26 09:07:21 51°31.144 2°52.546 179.2 7.3 172 23.1
2011-07-26 09:08:21 51°30.995 2°52.518 196.4 9.5 197 22.6
2011-07-26 09:09:21 51°30.808 2°52.467 186.2 12.3 182 21.6
2011-07-26 09:10:21 51°30.604 2°52.449 184.1 12.7 181 22
2011-07-26 09:11:21 51°30.402 2°52.433 183.4 12.4 187 28.7
2011-07-26 09:12:21 51°30.2 2°52.424 184.2 11.8 178 30.8
2011-07-26 09:13:21 51°29.996 2°52.42 185.3 12 175 30.7
2011-07-26 09:14:21 51°29.79 2°52.413 183 12.7 179 32.1
2011-07-26 09:15:21 51°29.589 2°52.401 183.6 12 179 32.1
2011-07-26 09:16:21 51°29.387 2°52.385 184 12.1 184 32
2011-07-26 09:17:21 51°29.189 2°52.369 185.2 12.3 185 31.5
2011-07-26 09:18:21 51°28.989 2°52.35 183.7 11.6 178 31.8
2011-07-26 09:19:21 51°28.787 2°52.336 185 12.6 185 31
2011-07-26 09:20:21 51°28.589 2°52.291 188.5 12.6 185 29.7
2011-07-26 09:21:21 51°28.387 2°52.246 188.7 11.9 192 27.7
2011-07-26 09:22:21 51°28.189 2°52.199 192 12.3 191 26
2011-07-26 09:23:21 51°27.99 2°52.153 188.8 12.2 189 24.6
2011-07-26 09:24:21 51°27.793 2°52.105 191.6 11.7 185 23.1
2011-07-26 09:25:21 51°27.595 2°52.064 187.8 11.4 187 22.3
2011-07-26 09:26:21 51°27.397 2°52.021 190.2 12 192 21.3
2011-07-26 09:27:21 51°27.197 2°51.972 188.3 12.6 191 23.7
2011-07-26 09:28:21 51°27.005 2°51.929 187.8 10.8 185 24.3
2011-07-26 09:29:21 51°26.862 2°51.91 189.5 8 184 25.9
2011-07-26 09:30:21 51°26.754 2°51.894 196.5 4.8 192 27.4
2011-07-26 09:31:21 51°26.713 2°51.855 231.5 2.3 225 28.1
2011-07-26 09:32:21 51°26.706 2°51.846 262.8 0.6 92 27.9
2011-07-26 09:33:21 51°26.705 2°51.87 261.6 1 71 28.2
2011-07-26 09:34:21 51°26.704 2°51.895 245.5 0.7 74 27.7
2011-07-26 09:35:21 51°26.703 2°51.898 259.1 0.2 265 28.2
2011-07-26 09:36:21 51°26.703 2°51.894 267.2 0.1 134 27.8
2011-07-26 09:37:21 51°26.703 2°51.897 268.4 0.2 16 27.6
2011-07-26 09:38:21 51°26.704 2°51.898 269.1 0.1 91 28.2
2011-07-26 09:39:21 51°26.704 2°51.898 269.3 0.2 187 28.3
2011-07-26 09:40:21 51°26.705 2°51.896 269.3 0.1 341 27.9
2011-07-26 09:41:21 51°26.705 2°51.897 267.7 0.1 215 28.2
2011-07-26 09:42:21 51°26.705 2°51.898 268.5 0.2 164 28
2011-07-26 09:43:21 51°26.705 2°51.898 266 0.2 353 28.2
2011-07-26 09:44:21 51°26.706 2°51.897 268.9 -999 207 28
2011-07-26 09:45:21 51°26.705 2°51.898 266.8 0.1 -999 27.9
2011-07-26 09:46:21 51°26.706 2°51.897 266.4 0.3 332 27.7
2011-07-26 09:47:21 51°26.706 2°51.897 266.7 0.1 18 28.1
2011-07-26 09:48:21 51°26.707 2°51.897 264.4 0.2 316 28.2
2011-07-26 09:49:21 51°26.707 2°51.896 264 0.2 23 28.1
2011-07-26 09:50:21 51°26.707 2°51.898 263 0.3 173 28.2
2011-07-26 09:51:21 51°26.707 2°51.897 264.9 0.1 240 27.9
2011-07-26 09:52:21 51°26.709 2°51.896 265.9 0.1 45 27.9
2011-07-26 09:53:21 51°26.709 2°51.897 261.7 0.1 22 28.2
2011-07-26 09:54:21 51°26.709 2°51.897 263.6 0.2 332 27.9
2011-07-26 09:55:21 51°26.709 2°51.897 264.4 0.2 16 27.9
2011-07-26 09:56:21 51°26.709 2°51.896 264 0.3 201 28.5
2011-07-26 09:57:21 51°26.71 2°51.895 265.7 0.2 20 27.9
2011-07-26 09:58:21 51°26.71 2°51.897 265.1 0.1 139 27.5
2011-07-26 09:59:21 51°26.71 2°51.897 265 0.1 1 27.7
2011-07-26 10:00:21 51°26.71 2°51.896 263.9 -999 227 28.1
2011-07-26 10:01:21 51°26.709 2°51.897 263.7 0.1 188 27.8
2011-07-26 10:02:21 51°26.708 2°51.897 264.9 0.1 190 28.1
2011-07-26 10:03:21 51°26.708 2°51.896 264.8 0.2 329 27.6
2011-07-26 10:04:21 51°26.708 2°51.896 265 -999 209 28
2011-07-26 10:05:21 51°26.708 2°51.897 266 0.1 34 27.8
2011-07-26 10:06:21 51°26.708 2°51.897 266.7 0.1 24 27.8
2011-07-26 10:07:21 51°26.708 2°51.897 267.2 0.1 229 27.1
2011-07-26 10:08:21 51°26.709 2°51.896 267.5 0.1 348 28
2011-07-26 10:09:21 51°26.709 2°51.896 268.6 0.1 158 27.9
2011-07-26 10:10:21 51°26.71 2°51.896 268.7 0.1 194 28.1
2011-07-26 10:11:21 51°26.712 2°51.895 269.6 0.3 341 27.5
2011-07-26 10:12:21 51°26.712 2°51.895 266.5 -999 89 27.2
2011-07-26 10:13:21 51°26.711 2°51.896 265.8 0.1 5 27.5
2011-07-26 10:14:21 51°26.71 2°51.896 267.5 0.2 145 28.1
2011-07-26 10:15:21 51°26.709 2°51.895 266.6 0.2 307 28.1
2011-07-26 10:16:21 51°26.708 2°51.884 266.5 0.5 251 27.8
2011-07-26 10:17:21 51°26.708 2°51.868 269.5 0.7 276 27.8
2011-07-26 10:18:21 51°26.707 2°51.856 269.6 0.2 232 28.4
2011-07-26 10:19:21 51°26.708 2°51.858 268.6 0.3 84 27.3
2011-07-26 10:20:21 51°26.706 2°51.87 264.2 0.6 115 28.1
2011-07-26 10:21:21 51°26.703 2°51.875 261.5 0.7 247 27.5
2011-07-26 10:22:21 51°26.698 2°51.83 263.6 2.3 268 27.4
2011-07-26 10:23:21 51°26.688 2°51.762 256.6 2.9 253 26.8
2011-07-26 10:24:21 51°26.668 2°51.661 254.1 5.5 253 26.7
2011-07-26 10:25:21 51°26.637 2°51.494 255.3 7 255 25.9
2011-07-26 10:26:20 51°26.61 2°51.31 257.4 7.3 257 26.2
2011-07-26 10:27:21 51°26.584 2°51.115 258.4 7.4 262 27.3
2011-07-26 10:28:21 51°26.559 2°50.922 258.9 7.4 256 25.7
2011-07-26 10:29:20 51°26.537 2°50.731 259.7 7.3 259 24.7
2011-07-26 10:30:21 51°26.507 2°50.514 256.8 9.1 257 23.8
2011-07-26 10:31:20 51°26.473 2°50.278 258.5 9.4 260 24.3
2011-07-26 10:32:20 51°26.444 2°50.031 258.2 9.4 258 24.4
2011-07-26 10:33:20 51°26.411 2°49.783 258.1 9.5 259 24.6
2011-07-26 10:34:20 51°26.381 2°49.536 257.7 9.4 257 24.1
2011-07-26 10:35:21 51°26.349 2°49.286 258.1 9.5 260 23.3
2011-07-26 10:36:20 51°26.318 2°49.045 258.5 9.3 259 24.1
2011-07-26 10:37:21 51°26.274 2°48.806 247.9 8.4 248 25.5
2011-07-26 10:38:20 51°26.224 2°48.631 244 7 249 23
2011-07-26 10:39:21 51°26.177 2°48.463 246.1 6.8 248 23
2011-07-26 10:40:20 51°26.133 2°48.303 245.9 6.6 248 24.4
2011-07-26 10:41:21 51°26.091 2°48.137 246.6 6.6 249 24.2
2011-07-26 10:42:20 51°26.043 2°47.981 242.7 6.6 246 23.3
2011-07-26 10:43:20 51°25.994 2°47.821 242.5 6.6 241 22.1
2011-07-26 10:44:20 51°25.942 2°47.663 242.3 6.8 244 24
2011-07-26 10:45:20 51°25.893 2°47.503 243.9 6.7 245 24.1
2011-07-26 10:46:20 51°25.847 2°47.338 245.3 6.8 247 24.3
2011-07-26 10:47:20 51°25.798 2°47.175 242 6.8 244 23.4
2011-07-26 10:48:21 51°25.745 2°47.011 242 6.8 243 25.1
2011-07-26 10:49:20 51°25.704 2°46.872 244.8 4.9 246 25.6
2011-07-26 10:50:21 51°25.672 2°46.767 244 4.1 244 25.4
2011-07-26 10:51:20 51°25.644 2°46.675 243.7 3.5 240 25
2011-07-26 10:52:20 51°25.62 2°46.593 247.2 3.4 246 25.6
2011-07-26 10:53:20 51°25.596 2°46.513 244.2 3.4 245 23.9
2011-07-26 10:54:21 51°25.57 2°46.432 243.2 3.4 240 26.1
2011-07-26 10:55:21 51°25.54 2°46.347 240.9 4.2 244 25.9
2011-07-26 10:56:21 51°25.499 2°46.234 241 5.4 237 27.1
2011-07-26 10:57:21 51°25.454 2°46.111 241.7 4.7 240 26.7
2011-07-26 10:58:20 51°25.433 2°46.034 251.2 2.3 252 24.8
2011-07-26 10:59:21 51°25.425 2°45.993 254.5 1.3 253 26.4
2011-07-26 11:00:20 51°25.42 2°45.973 257.7 0.6 277 26.2
2011-07-26 11:01:20 51°25.417 2°45.963 262.9 0.4 194 26.5
2011-07-26 11:02:20 51°25.416 2°45.962 265.9 0.2 172 26.6
2011-07-26 11:03:21 51°25.412 2°45.968 259.4 0.4 125 26.3
2011-07-26 11:04:20 51°25.408 2°45.98 252.2 0.7 125 26.9
2011-07-26 11:05:21 51°25.406 2°45.995 242.7 0.5 78 26.3
2011-07-26 11:06:21 51°25.403 2°46.012 235 0.6 101 26.5
2011-07-26 11:07:20 51°25.4 2°46.028 234.1 0.8 120 26.6
2011-07-26 11:08:21 51°25.397 2°46.044 234.5 0.5 100 26.5
2011-07-26 11:09:20 51°25.395 2°46.06 234.4 0.6 108 26.1
2011-07-26 11:10:20 51°25.391 2°46.076 232.6 0.5 111 26.4
2011-07-26 11:11:20 51°25.388 2°46.089 237 0.6 117 26.4
2011-07-26 11:12:21 51°25.385 2°46.102 236.3 0.3 87 26.3
2011-07-26 11:13:20 51°25.381 2°46.114 234.9 0.6 114 26
2011-07-26 11:14:21 51°25.379 2°46.125 237 0.4 103 26
2011-07-26 11:15:21 51°25.375 2°46.138 237.4 0.7 125 26.4
2011-07-26 11:16:20 51°25.372 2°46.148 239.6 0.6 128 26.3
2011-07-26 11:17:21 51°25.368 2°46.158 238.4 0.2 128 26.2
2011-07-26 11:18:20 51°25.364 2°46.167 239.4 0.5 132 26.5
2011-07-26 11:19:20 51°25.361 2°46.175 240 0.2 109 26.2
2011-07-26 11:20:20 51°25.357 2°46.179 238.9 0.4 201 25.8
2011-07-26 11:21:21 51°25.325 2°46.077 247.8 7.8 247 24.6
2011-07-26 11:22:21 51°25.262 2°45.83 247 10.8 248 26
2011-07-26 11:23:20 51°25.195 2°45.563 250.7 11.1 253 26.4
2011-07-26 11:24:21 51°25.143 2°45.254 255 12.4 257 25.5
2011-07-26 11:25:20 51°25.09 2°44.94 253.6 12.7 255 26.7
2011-07-26 11:26:20 51°25.02 2°44.631 245.6 12.5 245 27
2011-07-26 11:27:20 51°24.944 2°44.336 248.2 9.7 249 23.4
2011-07-26 11:28:21 51°24.914 2°44.167 257.9 4.9 257 21.1
2011-07-26 11:29:20 51°24.878 2°44.077 220.1 3.8 218 24.3
2011-07-26 11:30:20 51°24.844 2°44.002 244.8 3.3 243 21.4
2011-07-26 11:31:21 51°24.811 2°43.926 231 3.4 231 23.6
2011-07-26 11:32:20 51°24.771 2°43.857 228.1 3.7 229 22.5
2011-07-26 11:33:20 51°24.729 2°43.792 217.9 3.4 219 25.6
2011-07-26 11:34:21 51°24.701 2°43.74 239 2 239 23.3
2011-07-26 11:35:20 51°24.677 2°43.707 217.7 1.6 208 24.6
2011-07-26 11:36:20 51°24.663 2°43.698 224.4 0.2 183 22
2011-07-26 11:37:21 51°24.659 2°43.7 233.1 0.3 163 22.6
2011-07-26 11:38:20 51°24.656 2°43.703 242.6 0.2 130 24.1
2011-07-26 11:39:20 51°24.652 2°43.708 245.6 0.2 143 24.5
2011-07-26 11:40:20 51°24.648 2°43.711 247.6 0.4 154 24.3
2011-07-26 11:41:21 51°24.644 2°43.715 249.4 0.2 147 24.6
2011-07-26 11:42:21 51°24.64 2°43.723 242.2 0.7 111 25.2
2011-07-26 11:43:22 51°24.648 2°43.755 223.1 1.9 58 25.2
2011-07-26 11:44:24 51°24.668 2°43.787 200.7 1.2 39 21.6
2011-07-26 11:45:24 51°24.657 2°43.776 234.2 3 235 -999
2011-07-26 11:46:22 51°24.664 2°43.692 306.6 3.4 312 21.5
2011-07-26 11:47:20 51°24.709 2°43.667 11 2.7 18 23.5
2011-07-26 11:48:20 51°24.724 2°43.684 54.2 0.5 50 24.2
2011-07-26 11:49:23 51°24.721 2°43.69 81 0.1 225 -999
2011-07-26 11:50:22 51°24.717 2°43.692 95.6 0.2 100 24.7
2011-07-26 11:51:21 51°24.713 2°43.698 95 0.4 135 24.7
2011-07-26 11:52:20 51°24.709 2°43.701 89.7 0.3 243 24.2
2011-07-26 11:53:20 51°24.704 2°43.7 94.4 0.5 170 24.8
2011-07-26 11:54:20 51°24.7 2°43.706 87.9 0.3 109 24.1
2011-07-26 11:55:20 51°24.695 2°43.71 81.8 0.3 164 24.7
2011-07-26 11:56:21 51°24.689 2°43.711 80.5 0.4 167 24.2
2011-07-26 11:57:20 51°24.682 2°43.714 78.9 0.4 153 24.4
2011-07-26 11:58:20 51°24.675 2°43.719 79.2 0.6 167 21.7
2011-07-26 11:59:20 51°24.669 2°43.723 77.9 0.4 151 24.2
2011-07-26 12:00:20 51°24.663 2°43.728 76.5 0.3 145 24.6
2011-07-26 12:01:20 51°24.658 2°43.734 74.8 0.4 138 25.2
2011-07-26 12:02:20 51°24.653 2°43.741 69.9 0.3 162 25.2
2011-07-26 12:03:20 51°24.646 2°43.745 70.2 0.5 163 25.4
2011-07-26 12:04:20 51°24.639 2°43.749 75.7 0.7 157 25.4
2011-07-26 12:05:21 51°24.64 2°43.773 54.9 1.8 51 24.1
2011-07-26 12:06:20 51°24.666 2°43.805 11.8 2.3 16 24.1
2011-07-26 12:07:20 51°24.701 2°43.79 318.2 1.8 316 23.9
2011-07-26 12:08:20 51°24.708 2°43.765 291.8 0.5 262 21.3
2011-07-26 12:09:20 51°24.703 2°43.755 272.6 0.6 212 22.8
2011-07-26 12:10:20 51°24.695 2°43.744 260.1 0.8 233 23.7
2011-07-26 12:11:20 51°24.687 2°43.73 257.7 0.8 212 23.8
2011-07-26 12:12:20 51°24.678 2°43.722 254.1 0.5 207 23.8
2011-07-26 12:13:20 51°24.67 2°43.717 250.9 0.6 182 21.2
2011-07-26 12:14:20 51°24.662 2°43.716 245.1 0.3 197 24.9
2011-07-26 12:15:20 51°24.655 2°43.717 242.3 0.4 181 24.8
2011-07-26 12:16:20 51°24.647 2°43.718 242.4 0.6 172 24.5
2011-07-26 12:17:20 51°24.64 2°43.721 237.4 0.5 167 24.6
2011-07-26 12:18:20 51°24.632 2°43.724 233.1 0.6 162 24.3
2011-07-26 12:19:20 51°24.625 2°43.724 237 0.4 210 22.6
2011-07-26 12:20:20 51°24.619 2°43.67 289 3.1 288 24.2
2011-07-26 12:21:20 51°24.664 2°43.626 5.5 3.5 9 23.5
2011-07-26 12:22:20 51°24.69 2°43.666 72 1.3 73 20.5
2011-07-26 12:23:20 51°24.689 2°43.688 84.1 0.7 112 24
2011-07-26 12:24:20 51°24.686 2°43.699 71 0.4 131 24.4
2011-07-26 12:25:20 51°24.682 2°43.706 63 0.4 141 23.8
2011-07-26 12:26:20 51°24.676 2°43.708 60.3 0.7 186 21.4
2011-07-26 12:27:20 51°24.667 2°43.706 68.4 0.5 198 23.4
2011-07-26 12:28:20 51°24.658 2°43.702 73.5 0.4 196 24.3
2011-07-26 12:29:20 51°24.65 2°43.698 78.1 0.6 198 22.1
2011-07-26 12:30:20 51°24.641 2°43.693 84.1 0.5 199 22
2011-07-26 12:31:20 51°24.631 2°43.69 84.4 0.4 195 22.1
2011-07-26 12:32:20 51°24.623 2°43.688 86.3 0.6 183 23.4
2011-07-26 12:33:20 51°24.616 2°43.688 84.8 0.7 174 23.9
2011-07-26 12:34:20 51°24.608 2°43.688 82.4 0.3 203 24
2011-07-26 12:35:20 51°24.604 2°43.703 58.2 1.8 65 23.6
2011-07-26 12:36:21 51°24.628 2°43.773 82.1 3.7 87 24.9
2011-07-26 12:37:20 51°24.599 2°43.904 112.2 7.6 114 24.2
2011-07-26 12:38:21 51°24.504 2°44.083 141.8 9.1 146 24.2
2011-07-26 12:39:21 51°24.357 2°44.185 156.1 9.7 160 26.2
2011-07-26 12:40:20 51°24.207 2°44.278 157.6 9.9 157 26.5
2011-07-26 12:41:21 51°24.051 2°44.367 158.9 9.9 161 26
2011-07-26 12:42:20 51°23.898 2°44.452 157.2 9.5 160 26.3
2011-07-26 12:43:21 51°23.744 2°44.544 156.5 9.7 164 26.3
2011-07-26 12:44:20 51°23.594 2°44.629 159.6 9.8 162 26.6
2011-07-26 12:45:21 51°23.438 2°44.716 157.7 9.9 156 27.5
2011-07-26 12:46:20 51°23.287 2°44.805 157.6 9.9 157 26.7
2011-07-26 12:47:20 51°23.132 2°44.897 159 9.9 160 26.6
2011-07-26 12:48:20 51°22.975 2°44.983 158.7 10 162 27.1
2011-07-26 12:49:20 51°22.828 2°45.096 141.6 9.9 142 26.6
2011-07-26 12:50:21 51°22.702 2°45.281 136 10.2 136 26.4
2011-07-26 12:51:20 51°22.576 2°45.459 139.4 10.5 137 22.9
2011-07-26 12:52:21 51°22.435 2°45.635 142.9 10.8 143 23.9
2011-07-26 12:53:20 51°22.296 2°45.806 141.1 10.7 134 21.7
2011-07-26 12:54:21 51°22.153 2°45.979 143.2 10.6 144 20.2
2011-07-26 12:55:20 51°22.011 2°46.147 140.6 10.8 140 21.4
2011-07-26 12:56:21 51°21.866 2°46.326 141.5 11 147 23.5
2011-07-26 12:57:21 51°21.724 2°46.503 141.3 10.7 144 24.9
2011-07-26 12:58:20 51°21.579 2°46.667 141.8 10.7 147 24.8
2011-07-26 12:59:21 51°21.431 2°46.84 142.2 11.1 139 25.3
2011-07-26 13:00:20 51°21.292 2°47.006 139.6 10.6 139 23.2
2011-07-26 13:01:21 51°21.148 2°47.179 140.3 10.7 146 23.4
2011-07-26 13:02:20 51°21.008 2°47.344 140.2 10.7 146 19.2
2011-07-26 13:03:21 51°20.866 2°47.516 140.9 10.6 141 18.6
2011-07-26 13:04:20 51°20.729 2°47.683 140.3 10.4 142 19.1
2011-07-26 13:05:20 51°20.585 2°47.842 143.1 10.8 147 20.3
2011-07-26 13:06:20 51°20.445 2°48.014 140.9 10.6 138 21.1
2011-07-26 13:07:20 51°20.298 2°48.178 142.4 10.8 146 22.3
2011-07-26 13:08:21 51°20.151 2°48.351 140.4 10.9 142 22.7
2011-07-26 13:09:20 51°20.011 2°48.52 140.9 10.6 143 22.3
2011-07-26 13:10:21 51°19.862 2°48.689 140.7 10.7 142 21.4
2011-07-26 13:11:20 51°19.719 2°48.854 140.2 10.7 144 19.2
2011-07-26 13:12:20 51°19.573 2°49.023 142 11.1 142 17.3
2011-07-26 13:13:20 51°19.427 2°49.187 142.2 10.7 147 14.4
2011-07-26 13:14:21 51°19.282 2°49.356 140.1 10.5 141 14.1
2011-07-26 13:15:20 51°19.143 2°49.515 141.5 10.6 144 12.4
2011-07-26 13:16:20 51°19.002 2°49.674 140.1 9.9 143 11
2011-07-26 13:17:21 51°18.862 2°49.843 140.4 10.6 145 11.6
2011-07-26 13:18:20 51°18.729 2°50.015 140 11 142 13.3
2011-07-26 13:19:21 51°18.593 2°50.196 135 10.4 141 13.9
2011-07-26 13:20:20 51°18.458 2°50.368 137.5 10.7 142 14.4
2011-07-26 13:21:21 51°18.319 2°50.551 138 10.7 140 14.1
2011-07-26 13:22:20 51°18.183 2°50.721 137 10.5 143 13.2
2011-07-26 13:23:20 51°18.047 2°50.902 136.4 10.7 140 12.6
2011-07-26 13:24:20 51°17.907 2°51.075 139.4 10.7 143 11.5
2011-07-26 13:25:20 51°17.767 2°51.244 139.3 10.7 142 10.1
2011-07-26 13:26:21 51°17.625 2°51.417 139.8 10.8 142 9.7
2011-07-26 13:27:20 51°17.481 2°51.574 142.1 10.4 148 9.9
2011-07-26 13:28:21 51°17.327 2°51.723 144.5 10.8 148 9.8
2011-07-26 13:29:20 51°17.177 2°51.869 142.6 10.6 149 10.7
2011-07-26 13:30:21 51°17.02 2°52.019 146.7 11.1 150 11.1
2011-07-26 13:31:20 51°16.871 2°52.17 142.6 10.8 146 11.1
2011-07-26 13:32:20 51°16.718 2°52.318 145 10.7 145 10.9
2011-07-26 13:33:20 51°16.573 2°52.484 139.4 10.4 143 11.1
2011-07-26 13:34:20 51°16.426 2°52.641 141.6 10.5 147 12
2011-07-26 13:35:21 51°16.277 2°52.8 141.1 11 144 12.3
2011-07-26 13:36:20 51°16.136 2°52.958 138.7 10.2 144 11.8
2011-07-26 13:37:21 51°15.993 2°53.141 134.1 11.3 141 11.8
2011-07-26 13:38:20 51°15.86 2°53.332 133.6 11.1 136 11.5
2011-07-26 13:39:20 51°15.721 2°53.518 137.3 11 143 12
2011-07-26 13:40:21 51°15.578 2°53.707 133.7 10.8 142 11.9
2011-07-26 13:41:21 51°15.438 2°53.895 136.1 11.3 141 11.7
2011-07-26 13:42:21 51°15.295 2°54.082 136.8 11.3 140 11.9
2011-07-26 13:43:20 51°15.155 2°54.263 136 11 142 11.5
2011-07-26 13:44:21 51°15.01 2°54.45 138.5 11.2 144 11.3
2011-07-26 13:45:20 51°14.861 2°54.612 141.6 11.2 147 11.3
2011-07-26 13:46:21 51°14.697 2°54.765 143.5 11.1 148 11.1
2011-07-26 13:47:20 51°14.546 2°54.921 139.1 10.8 145 10.9
2011-07-26 13:48:21 51°14.411 2°55.117 140.9 10.7 144 11
2011-07-26 13:49:21 51°14.288 2°55.259 143.4 8 143 10.9
2011-07-26 13:50:20 51°14.18 2°55.365 151.6 7.7 152 10.9
2011-07-26 13:51:21 51°14.061 2°55.459 153.8 8.1 155 11
2011-07-26 13:52:21 51°13.949 2°55.542 154.7 7 156 11.1
2011-07-26 13:53:21 51°13.843 2°55.622 153.9 6.9 155 11.1
2011-07-26 13:54:21 51°13.755 2°55.714 138.7 5.6 138 11.1
2011-07-26 13:55:21 51°13.698 2°55.818 126.9 4.7 127 10.8
2011-07-26 13:56:21 51°13.66 2°55.907 117.8 3.7 118 10.3
2011-07-26 13:57:21 51°13.642 2°55.991 102.5 2.7 104 7.2